Flight Information

DEPARTURE
EUGENE, OR
Elevation:
373
Runways:
16R/34L - 8009x150 - ASPH-G
16L/34R - 6000x150 - ASPH-G
Active PE Departure:
16L - 16R
Current PE ATIS:
M
Altimeter:
30.14
Remarks:
SIMULTANEOUS APPROACHES TO PARALLEL RUNWAYS IN USE.
ATIS:
125.225 541-607-4699
Clearance Delivery:
121.7
Ground:
121.7
Tower:
EUGENE TOWER 118.9 RY 16R/34L 124.15 RY 16L/34R
DESTINATION
,
Elevation:
TPA:
1000 (est.)


6788.9 NM66° True-18° Var47° HDG

Flight Plan:
(click to file on line)

1. Type
2. Aircraft Identification
3. Aircraft Type / Special Equipment
4. True Airspeed
kts
5. Departure Airport
(ICAO code)
6. Arriving Airport
(ICAO code)
7. Cruising Altitude
ft
8. Alternate Airport
(ICAO code)
9. Route of Flight
10. Remarks


00:00:00 Departure ATIS: Destination ATIS:

Clearance Limit:
Route:
Altitude: Expect in minutes
Frequency:
Transponder: (7500 Hijack / 7600 Lost Comms / 7700 Emergency)


K77S 010255Z AUTO 00000KT 10SM OVC080 18/14 A3014 RMK A01
Time: 2020-10-01T02:55:00Z
1601521622
Winds: calm
Visibility: 10.0 sm
Clouds (AGL): OVC 8000
Temperature: 18.0 C
Dew Point: 14.0 C
Pressure: 30.138779 in Hgbr


Notes:

Data extracted from FAA Digital Chart Supplement. Effective: 0901Z Thursday, Sep 10, 2020 to 0901Z Thursday, Nov 5, 2020
Current ATIS data is provided courtisy of PilotEdge.